Time;durP1;ratioP1;P1;durP2;ratioP2;P2;SDS_P1;SDS_P2;PMS_P1;PMS_P2;Temp;Humidity;BMP_temperature;BMP_pressure;BME280_temperature;BME280_humidity;BME280_pressure;Samples;Min_cycle;Max_cycle;Signal;HPM_P1;HPM_P2
2023/03/10 00:01:36;;;;;;;6.60;2.70;;;;;;;;;;4996588;28;20046;-76
2023/03/10 00:04:02;;;;;;;6.57;2.67;;;;;;;;;;4994907;28;20125;-77
2023/03/10 00:06:32;;;;;;;9.27;2.50;;;;;;;;;;4995120;28;20125;-77
2023/03/10 00:08:59;;;;;;;6.03;2.38;;;;;;;;;;4994909;28;20050;-76
2023/03/10 00:11:27;;;;;;;7.53;2.00;;;;;;;;;;4994959;28;20565;-78
2023/03/10 00:13:54;;;;;;;5.88;2.40;;;;;;;;;;4995660;28;20404;-76
2023/03/10 00:16:23;;;;;;;5.05;2.20;;;;;;;;;;5011969;28;20186;-77
2023/03/10 00:18:50;;;;;;;5.90;2.10;;;;;;;;;;5016175;28;20092;-78
2023/03/10 00:21:19;;;;;;;5.45;2.20;;;;;;;;;;5015465;28;20125;-78
2023/03/10 00:23:45;;;;;;;6.15;2.13;;;;;;;;;;5014800;28;20133;-78
2023/03/10 00:26:14;;;;;;;6.32;2.08;;;;;;;;;;5014496;28;20126;-76
2023/03/10 00:28:42;;;;;;;5.93;2.20;;;;;;;;;;5013828;28;20510;-77
2023/03/10 00:31:12;;;;;;;7.53;2.20;;;;;;;;;;5014878;28;20045;-77
2023/03/10 00:33:39;;;;;;;6.10;2.50;;;;;;;;;;5015023;28;20133;-77
2023/03/10 00:36:08;;;;;;;5.45;2.53;;;;;;;;;;5014453;28;20535;-79
2023/03/10 00:38:36;;;;;;;7.18;2.92;;;;;;;;;;5007114;28;20054;-77
2023/03/10 00:41:04;;;;;;;5.90;2.28;;;;;;;;;;4994786;28;20565;-79
2023/03/10 00:43:31;;;;;;;6.32;2.08;;;;;;;;;;4994341;28;20060;-78
2023/03/10 00:46:00;;;;;;;5.75;2.50;;;;;;;;;;5007246;28;20045;-77
2023/03/10 00:48:27;;;;;;;7.00;2.67;;;;;;;;;;5013753;28;20137;-77
2023/03/10 00:50:54;;;;;;;7.93;2.17;;;;;;;;;;5011072;28;20042;-77
2023/03/10 00:53:20;;;;;;;4.57;2.15;;;;;;;;;;4994520;28;20110;-77
2023/03/10 00:55:57;;;;;;;6.13;2.00;;;;;;;;;;4994419;28;20132;-77
2023/03/10 00:58:24;;;;;;;4.72;1.90;;;;;;;;;;4993499;28;20055;-76
2023/03/10 01:00:51;;;;;;;6.05;2.08;;;;;;;;;;4993860;28;20074;-78
2023/03/10 01:03:19;;;;;;;4.18;2.00;;;;;;;;;;5007124;28;20042;-76
2023/03/10 01:05:46;;;;;;;6.00;1.77;;;;;;;;;;5008111;28;20052;-76
2023/03/10 01:08:13;;;;;;;6.15;2.17;;;;;;;;;;5012418;28;20493;-76
2023/03/10 01:10:39;;;;;;;5.38;2.10;;;;;;;;;;5013675;28;20077;-77
2023/03/10 01:13:06;;;;;;;5.95;2.15;;;;;;;;;;5012767;28;20045;-77
2023/03/10 01:15:33;;;;;;;6.75;2.30;;;;;;;;;;5005651;28;20045;-77
2023/03/10 01:18:02;;;;;;;6.03;2.00;;;;;;;;;;5014073;28;20668;-77
2023/03/10 01:20:30;;;;;;;6.70;2.17;;;;;;;;;;5013766;28;20524;-77
2023/03/10 01:22:57;;;;;;;6.93;2.33;;;;;;;;;;5013336;28;20575;-77
2023/03/10 01:25:24;;;;;;;5.93;2.03;;;;;;;;;;5005585;28;20512;-78
2023/03/10 01:27:51;;;;;;;5.53;2.17;;;;;;;;;;5013470;28;20138;-78
2023/03/10 01:30:18;;;;;;;6.28;2.17;;;;;;;;;;5013202;28;20132;-76
2023/03/10 01:32:45;;;;;;;5.88;2.13;;;;;;;;;;5012966;28;20049;-76
2023/03/10 01:35:12;;;;;;;4.75;2.00;;;;;;;;;;5004597;28;20053;-77
2023/03/10 01:37:40;;;;;;;4.38;1.95;;;;;;;;;;5012919;28;20567;-77
2023/03/10 01:40:08;;;;;;;5.25;1.85;;;;;;;;;;5013428;28;20489;-77
2023/03/10 01:42:35;;;;;;;7.75;2.47;;;;;;;;;;5013863;28;20130;-78
2023/03/10 01:45:30;;;;;;;6.25;2.35;;;;;;;;;;5007296;28;20092;-78
2023/03/10 01:47:57;;;;;;;6.82;2.40;;;;;;;;;;4993435;28;20077;-78
2023/03/10 01:50:24;;;;;;;7.80;2.25;;;;;;;;;;4994800;28;20074;-78
2023/03/10 01:52:57;;;;;;;5.10;2.10;;;;;;;;;;4994025;28;20046;-77
2023/03/10 01:55:26;;;;;;;5.43;2.03;;;;;;;;;;4994452;28;20121;-78
2023/03/10 01:57:55;;;;;;;4.70;2.00;;;;;;;;;;5012944;28;20072;-78
2023/03/10 02:00:23;;;;;;;4.80;2.28;;;;;;;;;;5018231;28;20054;-78
2023/03/10 02:02:54;;;;;;;7.38;2.25;;;;;;;;;;5018142;28;20157;-77
2023/03/10 02:05:22;;;;;;;8.50;2.50;;;;;;;;;;5015396;28;20141;-78
2023/03/10 02:07:49;;;;;;;5.72;2.05;;;;;;;;;;5012020;28;20069;-78
2023/03/10 02:10:17;;;;;;;4.95;1.70;;;;;;;;;;5017827;28;20533;-78
2023/03/10 02:12:44;;;;;;;4.90;2.05;;;;;;;;;;5017976;28;20129;-78
2023/03/10 02:15:12;;;;;;;5.07;2.22;;;;;;;;;;5010618;28;20042;-77
2023/03/10 02:17:39;;;;;;;4.57;1.80;;;;;;;;;;5006580;28;20134;-78
2023/03/10 02:20:19;;;;;;;6.68;2.15;;;;;;;;;;4998059;28;20074;-78
2023/03/10 02:22:47;;;;;;;6.25;2.03;;;;;;;;;;4998970;28;20046;-78
2023/03/10 02:25:29;;;;;;;6.07;2.65;;;;;;;;;;4997847;28;20050;-78
2023/03/10 02:27:57;;;;;;;7.25;2.85;;;;;;;;;;5005545;28;20470;-78
2023/03/10 02:30:28;;;;;;;7.05;2.20;;;;;;;;;;5001750;28;20053;-78
2023/03/10 02:32:58;;;;;;;7.07;2.10;;;;;;;;;;5018224;28;20097;-78
2023/03/10 02:35:25;;;;;;;3.80;1.77;;;;;;;;;;5018284;28;20049;-78
2023/03/10 02:37:52;;;;;;;4.57;1.90;;;;;;;;;;5006881;28;20494;-78
2023/03/10 02:40:33;;;;;;;5.25;1.90;;;;;;;;;;4999628;28;20085;-78
2023/03/10 02:43:05;;;;;;;4.68;1.75;;;;;;;;;;4999756;28;20046;-77
2023/03/10 02:45:34;;;;;;;5.93;1.60;;;;;;;;;;5010795;28;20110;-77
2023/03/10 02:48:00;;;;;;;4.18;1.70;;;;;;;;;;5022913;28;20050;-77
2023/03/10 02:50:30;;;;;;;5.78;2.00;;;;;;;;;;5025861;28;20100;-77
2023/03/10 02:53:04;;;;;;;5.07;1.58;;;;;;;;;;5021521;28;20125;-78
2023/03/10 02:55:30;;;;;;;5.30;1.90;;;;;;;;;;5017601;28;20084;-77
2023/03/10 02:58:01;;;;;;;3.17;1.38;;;;;;;;;;5011670;28;20105;-75
2023/03/10 03:00:29;;;;;;;3.80;1.27;;;;;;;;;;5002969;28;20046;-76
2023/03/10 03:02:56;;;;;;;5.35;2.20;;;;;;;;;;5001132;28;20097;-76
2023/03/10 03:05:23;;;;;;;5.75;2.03;;;;;;;;;;4997832;28;20050;-76
2023/03/10 03:07:50;;;;;;;5.15;1.85;;;;;;;;;;4998999;28;20502;-75
2023/03/10 03:10:17;;;;;;;4.13;1.65;;;;;;;;;;5017580;28;20137;-76
2023/03/10 03:12:43;;;;;;;4.93;1.50;;;;;;;;;;5001914;28;20129;-77
2023/03/10 03:15:10;;;;;;;3.65;1.48;;;;;;;;;;5004666;28;20560;-76
2023/03/10 03:17:38;;;;;;;3.78;1.50;;;;;;;;;;4997520;28;20488;-77
2023/03/10 03:20:10;;;;;;;4.43;1.63;;;;;;;;;;4997035;28;20050;-77
2023/03/10 03:22:37;;;;;;;3.78;1.83;;;;;;;;;;5003066;28;20069;-77
2023/03/10 03:25:04;;;;;;;4.88;1.73;;;;;;;;;;5005051;28;20046;-76
2023/03/10 03:27:31;;;;;;;4.38;1.80;;;;;;;;;;5002512;28;20531;-76
2023/03/10 03:29:59;;;;;;;3.58;1.30;;;;;;;;;;4997336;28;20133;-77
2023/03/10 03:32:26;;;;;;;3.97;1.70;;;;;;;;;;4998392;28;20042;-77
2023/03/10 03:34:54;;;;;;;4.15;1.70;;;;;;;;;;4998028;28;20141;-77
2023/03/10 03:37:20;;;;;;;3.35;1.23;;;;;;;;;;5006738;28;20077;-77
2023/03/10 03:39:47;;;;;;;4.00;1.40;;;;;;;;;;5018612;28;20125;-76
2023/03/10 03:42:14;;;;;;;3.85;1.40;;;;;;;;;;5020028;28;20073;-76
2023/03/10 03:44:40;;;;;;;4.38;1.40;;;;;;;;;;5017381;28;20126;-76
2023/03/10 03:47:07;;;;;;;3.40;1.23;;;;;;;;;;5001097;28;20042;-77
2023/03/10 03:49:35;;;;;;;3.60;1.25;;;;;;;;;;5017410;28;20054;-77
2023/03/10 03:52:03;;;;;;;3.97;1.60;;;;;;;;;;5020811;28;20052;-77
2023/03/10 03:54:30;;;;;;;4.03;1.65;;;;;;;;;;5018546;28;20409;-77
2023/03/10 03:56:57;;;;;;;4.97;2.10;;;;;;;;;;5009492;28;20486;-78
2023/03/10 03:59:23;;;;;;;3.17;1.30;;;;;;;;;;5003464;28;20047;-77
2023/03/10 04:01:50;;;;;;;4.22;1.50;;;;;;;;;;5000285;28;20133;-78
2023/03/10 04:04:17;;;;;;;4.18;1.50;;;;;;;;;;4998358;28;20134;-77
2023/03/10 04:06:43;;;;;;;4.22;1.63;;;;;;;;;;4998669;28;20124;-79
2023/03/10 04:09:12;;;;;;;5.00;1.60;;;;;;;;;;5011593;28;20085;-77
2023/03/10 04:11:39;;;;;;;3.40;1.30;;;;;;;;;;5015563;28;20519;-77
2023/03/10 04:14:06;;;;;;;2.92;1.30;;;;;;;;;;5015239;28;20485;-77
2023/03/10 04:16:32;;;;;;;4.03;1.42;;;;;;;;;;5020002;28;20479;-76
2023/03/10 04:19:00;;;;;;;4.82;1.85;;;;;;;;;;5014330;28;20086;-77
2023/03/10 04:21:27;;;;;;;5.53;2.47;;;;;;;;;;5016314;28;20469;-77
2023/03/10 04:23:53;;;;;;;3.25;1.60;;;;;;;;;;5016792;28;20106;-77
2023/03/10 04:26:21;;;;;;;4.32;1.98;;;;;;;;;;5015996;28;20088;-76
2023/03/10 04:28:48;;;;;;;3.35;1.45;;;;;;;;;;5002018;28;20134;-76
2023/03/10 04:31:16;;;;;;;6.40;1.52;;;;;;;;;;4995217;28;20050;-77
2023/03/10 04:33:43;;;;;;;4.03;1.30;;;;;;;;;;4994777;28;20046;-76
2023/03/10 04:36:09;;;;;;;3.40;1.75;;;;;;;;;;5029701;23;20136;-56
2023/03/10 04:38:36;;;;;;;3.28;1.10;;;;;;;;;;5032943;28;20387;-57
2023/03/10 04:41:04;;;;;;;4.47;1.48;;;;;;;;;;5033024;28;20620;-53
2023/03/10 04:43:32;;;;;;;2.60;1.38;;;;;;;;;;5033036;28;20123;-57
2023/03/10 04:45:59;;;;;;;3.92;1.67;;;;;;;;;;5032666;28;20053;-56
2023/03/10 04:48:26;;;;;;;3.78;1.40;;;;;;;;;;5032665;28;20095;-55
2023/03/10 04:50:57;;;;;;;4.03;1.38;;;;;;;;;;5032688;28;20057;-55
2023/03/10 04:53:24;;;;;;;;;;;;;;;;;;5032929;28;20060;-55
2023/03/10 04:55:51;;;;;;;4.53;1.27;;;;;;;;;;5033012;28;20340;-55
2023/03/10 04:58:18;;;;;;;4.10;1.52;;;;;;;;;;5032348;28;20049;-56
2023/03/10 05:00:46;;;;;;;4.82;1.75;;;;;;;;;;5032418;28;20056;-56
2023/03/10 05:03:13;;;;;;;4.75;1.10;;;;;;;;;;5032524;28;20135;-55
2023/03/10 05:05:41;;;;;;;5.45;1.52;;;;;;;;;;5032641;28;20103;-57
2023/03/10 05:08:08;;;;;;;3.42;1.40;;;;;;;;;;5032371;28;20136;-57
2023/03/10 05:10:35;;;;;;;3.90;1.10;;;;;;;;;;5032347;28;20486;-55
2023/03/10 05:13:02;;;;;;;4.13;1.30;;;;;;;;;;5032160;28;20049;-56
2023/03/10 05:15:29;;;;;;;5.00;1.90;;;;;;;;;;5032328;28;20060;-56
2023/03/10 05:17:57;;;;;;;4.75;1.55;;;;;;;;;;5032079;28;20049;-57
2023/03/10 05:20:24;;;;;;;3.42;1.13;;;;;;;;;;5032094;28;20052;-54
2023/03/10 05:22:51;;;;;;;3.42;1.17;;;;;;;;;;5032203;28;20050;-56
2023/03/10 05:25:18;;;;;;;3.65;1.30;;;;;;;;;;5032261;28;20058;-57
2023/03/10 05:27:44;;;;;;;3.92;1.30;;;;;;;;;;5032026;28;20175;-53
2023/03/10 05:30:14;;;;;;;4.07;1.83;;;;;;;;;;5032444;28;20054;-55
2023/03/10 05:32:41;;;;;;;4.55;1.23;;;;;;;;;;5032170;28;20578;-56
2023/03/10 05:35:10;;;;;;;3.78;1.20;;;;;;;;;;5032066;28;20115;-55
2023/03/10 05:37:39;;;;;;;2.50;1.20;;;;;;;;;;5032049;28;20049;-56
2023/03/10 05:40:07;;;;;;;5.22;1.45;;;;;;;;;;5031964;28;20153;-56
2023/03/10 05:42:34;;;;;;;3.80;1.60;;;;;;;;;;5031772;28;20076;-57
2023/03/10 05:45:01;;;;;;;3.60;1.20;;;;;;;;;;5031930;28;20482;-56
2023/03/10 05:47:28;;;;;;;5.43;1.42;;;;;;;;;;5031879;28;20099;-56
2023/03/10 05:49:54;;;;;;;3.28;1.50;;;;;;;;;;5031902;28;20053;-56
2023/03/10 05:52:23;;;;;;;5.28;1.63;;;;;;;;;;5031874;28;20045;-57
2023/03/10 05:54:49;;;;;;;2.78;1.17;;;;;;;;;;5031841;28;20052;-55
2023/03/10 05:57:16;;;;;;;7.40;1.60;;;;;;;;;;5031835;28;20061;-57
2023/03/10 05:59:43;;;;;;;4.20;1.40;;;;;;;;;;5031758;28;20052;-54
2023/03/10 06:02:10;;;;;;;5.30;1.50;;;;;;;;;;5031970;28;20123;-56
2023/03/10 06:04:38;;;;;;;3.50;1.35;;;;;;;;;;5031782;28;20049;-57
2023/03/10 06:07:05;;;;;;;4.80;1.88;;;;;;;;;;5031966;28;20053;-57
2023/03/10 06:09:33;;;;;;;3.75;1.27;;;;;;;;;;5031515;28;20511;-55
2023/03/10 06:12:00;;;;;;;3.92;1.58;;;;;;;;;;5031629;28;20053;-57
2023/03/10 06:14:27;;;;;;;3.58;1.40;;;;;;;;;;5031603;28;20111;-54
2023/03/10 06:16:54;;;;;;;3.17;1.10;;;;;;;;;;5031612;28;20053;-52
2023/03/10 06:19:22;;;;;;;3.33;1.30;;;;;;;;;;5031321;28;20053;-56
2023/03/10 06:21:49;;;;;;;4.82;1.27;;;;;;;;;;5031671;28;20057;-54
2023/03/10 06:24:16;;;;;;;6.35;1.52;;;;;;;;;;5031589;28;20053;-55
2023/03/10 06:26:44;;;;;;;3.50;1.25;;;;;;;;;;5031534;28;20626;-56
2023/03/10 06:29:11;;;;;;;4.57;1.40;;;;;;;;;;5031409;28;20545;-56
2023/03/10 06:31:38;;;;;;;4.05;1.50;;;;;;;;;;5031638;28;20123;-56
2023/03/10 06:34:05;;;;;;;4.03;1.80;;;;;;;;;;5031334;28;20052;-56
2023/03/10 06:36:32;;;;;;;5.63;2.30;;;;;;;;;;5031428;28;20077;-57
2023/03/10 06:38:59;;;;;;;7.22;2.60;;;;;;;;;;5031276;28;20057;-56
2023/03/10 06:41:26;;;;;;;6.70;1.85;;;;;;;;;;5031495;28;20057;-56
2023/03/10 06:43:54;;;;;;;6.53;2.03;;;;;;;;;;5031702;28;20490;-58
2023/03/10 06:46:21;;;;;;;6.70;2.00;;;;;;;;;;5034678;28;20060;-57
2023/03/10 06:48:49;;;;;;;3.85;1.73;;;;;;;;;;5034757;28;20540;-58
2023/03/10 06:51:18;;;;;;;6.78;2.80;;;;;;;;;;5034916;28;20099;-58
2023/03/10 06:53:45;;;;;;;6.03;2.35;;;;;;;;;;5034309;28;20057;-58
2023/03/10 06:56:14;;;;;;;5.82;2.65;;;;;;;;;;5034634;28;20517;-58
2023/03/10 06:58:41;;;;;;;6.30;2.38;;;;;;;;;;5034602;28;20057;-57
2023/03/10 07:01:20;;;;;;;6.88;3.70;;;;;;;;;;5034707;28;20516;-57
2023/03/10 07:03:47;;;;;;;8.60;2.28;;;;;;;;;;5034173;28;20100;-59
2023/03/10 07:06:14;;;;;;;5.50;1.95;;;;;;;;;;5034200;28;20569;-54
2023/03/10 07:08:41;;;;;;;5.65;2.28;;;;;;;;;;5034540;28;20054;-53
2023/03/10 07:11:09;;;;;;;6.05;1.90;;;;;;;;;;5034713;28;20053;-53
2023/03/10 07:13:35;;;;;;;5.68;2.28;;;;;;;;;;5034379;28;20049;-55
2023/03/10 07:16:02;;;;;;;6.32;2.40;;;;;;;;;;5034539;28;20053;-52
2023/03/10 07:18:31;;;;;;;4.32;1.90;;;;;;;;;;5034325;28;20122;-52
2023/03/10 07:20:58;;;;;;;4.07;1.70;;;;;;;;;;5034388;28;20052;-52
2023/03/10 07:23:26;;;;;;;6.00;1.80;;;;;;;;;;5034311;28;20045;-53
2023/03/10 07:25:54;;;;;;;4.53;1.80;;;;;;;;;;5034257;28;20384;-53
2023/03/10 07:28:21;;;;;;;4.95;1.77;;;;;;;;;;5034389;28;20054;-53
2023/03/10 07:30:49;;;;;;;3.42;1.70;;;;;;;;;;5034248;28;20060;-54
2023/03/10 07:33:16;;;;;;;3.97;1.85;;;;;;;;;;5038154;28;20140;-58
2023/03/10 07:35:44;;;;;;;6.13;1.75;;;;;;;;;;5039957;28;20055;-56
2023/03/10 07:38:11;;;;;;;4.00;1.80;;;;;;;;;;5035136;28;20407;-57
2023/03/10 07:40:39;;;;;;;4.80;1.40;;;;;;;;;;5019789;28;20142;-57
2023/03/10 07:43:06;;;;;;;4.60;2.20;;;;;;;;;;5019341;28;20057;-56
2023/03/10 07:45:34;;;;;;;7.28;2.00;;;;;;;;;;5020589;28;20050;-55
2023/03/10 07:48:01;;;;;;;4.35;1.90;;;;;;;;;;5020081;28;20478;-55
2023/03/10 07:50:28;;;;;;;5.90;2.22;;;;;;;;;;5029754;28;20056;-53
2023/03/10 07:52:56;;;;;;;5.05;2.05;;;;;;;;;;5039838;28;20049;-56
2023/03/10 07:55:26;;;;;;;8.73;2.30;;;;;;;;;;5038422;28;20049;-56
2023/03/10 07:57:55;;;;;;;5.13;1.95;;;;;;;;;;5038247;28;20045;-53
2023/03/10 08:00:22;;;;;;;6.70;2.35;;;;;;;;;;5038930;28;20053;-55
2023/03/10 08:02:49;;;;;;;6.28;2.40;;;;;;;;;;5039305;28;20053;-57
2023/03/10 08:05:16;;;;;;;7.32;2.42;;;;;;;;;;5023210;28;20498;-56
2023/03/10 08:07:43;;;;;;;5.78;2.20;;;;;;;;;;5036399;28;20057;-57
2023/03/10 08:10:13;;;;;;;7.82;2.17;;;;;;;;;;5038772;28;20064;-55
2023/03/10 08:12:39;;;;;;;5.65;2.22;;;;;;;;;;5025415;28;20065;-56
2023/03/10 08:15:07;;;;;;;5.88;2.35;;;;;;;;;;5019525;28;20049;-55
2023/03/10 08:17:38;;;;;;;8.57;2.47;;;;;;;;;;5027869;28;20054;-55
2023/03/10 08:20:06;;;;;;;7.95;2.15;;;;;;;;;;5037629;28;20046;-55
2023/03/10 08:22:33;;;;;;;8.00;2.05;;;;;;;;;;5038421;28;20109;-58
2023/03/10 08:25:00;;;;;;;6.60;1.70;;;;;;;;;;5038168;28;20049;-56
2023/03/10 08:27:29;;;;;;;8.02;2.30;;;;;;;;;;5028810;28;20049;-57
2023/03/10 08:29:56;;;;;;;6.13;2.60;;;;;;;;;;5018352;28;20080;-58
2023/03/10 08:32:22;;;;;;;8.02;2.38;;;;;;;;;;5019154;28;20050;-57
2023/03/10 08:34:49;;;;;;;5.65;2.25;;;;;;;;;;5018973;28;20054;-57
2023/03/10 08:37:16;;;;;;;4.75;1.85;;;;;;;;;;5018636;28;20064;-57
2023/03/10 08:39:45;;;;;;;8.23;2.65;;;;;;;;;;5029166;28;20049;-56
2023/03/10 08:42:13;;;;;;;5.90;2.55;;;;;;;;;;5038542;28;20096;-53
2023/03/10 08:44:41;;;;;;;6.95;2.92;;;;;;;;;;5037421;28;20049;-57
2023/03/10 08:47:09;;;;;;;7.93;2.30;;;;;;;;;;5038232;28;20055;-55
2023/03/10 08:49:38;;;;;;;6.03;2.92;;;;;;;;;;5039278;28;20045;-57
2023/03/10 08:52:06;;;;;;;6.03;2.30;;;;;;;;;;5038765;28;20058;-57
2023/03/10 08:54:33;;;;;;;6.72;1.90;;;;;;;;;;5033355;28;20088;-56
2023/03/10 08:57:00;;;;;;;6.53;2.20;;;;;;;;;;5037629;28;20062;-55
2023/03/10 08:59:27;;;;;;;5.78;2.28;;;;;;;;;;5033732;28;20054;-57
2023/03/10 09:01:56;;;;;;;6.07;2.63;;;;;;;;;;5037294;28;20048;-56
2023/03/10 09:04:22;;;;;;;5.82;2.55;;;;;;;;;;5037560;28;20053;-56
2023/03/10 09:06:49;;;;;;;7.68;3.45;;;;;;;;;;5024337;28;20050;-56
2023/03/10 09:09:16;;;;;;;7.00;2.70;;;;;;;;;;5015580;28;20099;-68
2023/03/10 09:11:45;;;;;;;5.80;2.35;;;;;;;;;;5024955;28;20533;-65
2023/03/10 09:14:15;;;;;;;8.02;2.97;;;;;;;;;;5033996;28;20498;-62
2023/03/10 09:16:42;;;;;;;17.58;6.55;;;;;;;;;;5033466;28;20061;-58
2023/03/10 09:19:10;;;;;;;22.40;8.05;;;;;;;;;;5033978;28;20409;-56
2023/03/10 09:21:37;;;;;;;9.68;3.28;;;;;;;;;;5033596;28;20045;-58
2023/03/10 09:24:04;;;;;;;4.78;2.45;;;;;;;;;;5033712;28;20049;-59
2023/03/10 09:26:33;;;;;;;6.70;2.38;;;;;;;;;;5033551;28;20049;-59
2023/03/10 09:29:00;;;;;;;7.22;2.95;;;;;;;;;;5034522;28;20380;-55
2023/03/10 09:31:31;;;;;;;8.43;2.78;;;;;;;;;;5029093;28;20443;-57
2023/03/10 09:33:58;;;;;;;32.53;13.38;;;;;;;;;;5029122;28;20049;-56
2023/03/10 09:36:28;;;;;;;9.68;4.13;;;;;;;;;;5020263;28;20477;-56
2023/03/10 09:38:56;;;;;;;10.32;2.90;;;;;;;;;;5025848;28;20089;-56
2023/03/10 09:41:40;;;;;;;9.70;3.03;;;;;;;;;;5029234;28;20124;-55
2023/03/10 09:44:22;;;;;;;6.53;2.45;;;;;;;;;;5021928;28;20106;-55
2023/03/10 09:47:00;;;;;;;9.57;2.97;;;;;;;;;;5024112;28;20050;-54
2023/03/10 09:49:33;;;;;;;7.22;2.17;;;;;;;;;;5024143;28;20340;-58
2023/03/10 09:52:12;;;;;;;5.65;2.05;;;;;;;;;;5030935;28;20125;-55
2023/03/10 09:54:51;;;;;;;4.60;1.90;;;;;;;;;;5023620;28;20061;-67
2023/03/10 09:57:22;;;;;;;5.57;1.60;;;;;;;;;;5027755;28;20067;-53
2023/03/10 09:59:52;;;;;;;4.70;1.38;;;;;;;;;;5034034;28;20049;-56
2023/03/10 10:02:22;;;;;;;2.63;1.23;;;;;;;;;;5036656;28;20487;-57
2023/03/10 10:04:53;;;;;;;4.97;1.50;;;;;;;;;;5037344;28;20053;-56
2023/03/10 10:07:25;;;;;;;6.07;2.30;;;;;;;;;;5032035;28;20052;-56
2023/03/10 10:09:58;;;;;;;3.33;1.20;;;;;;;;;;5036592;28;20045;-56
2023/03/10 10:12:26;;;;;;;2.70;1.23;;;;;;;;;;5029390;28;20065;-56
2023/03/10 10:14:58;;;;;;;3.83;1.23;;;;;;;;;;5027084;28;20115;-55
2023/03/10 10:17:36;;;;;;;7.35;2.72;;;;;;;;;;5032950;28;20053;-54
2023/03/10 10:20:07;;;;;;;2.17;1.10;;;;;;;;;;5039127;28;20080;-57
2023/03/10 10:22:36;;;;;;;4.75;1.90;;;;;;;;;;5040418;28;20050;-57
2023/03/10 10:25:16;;;;;;;2.47;1.23;;;;;;;;;;5039988;28;20132;-54
2023/03/10 10:27:44;;;;;;;3.10;0.98;;;;;;;;;;5039693;28;20064;-57
2023/03/10 10:30:36;;;;;;;2.60;0.90;;;;;;;;;;5039530;28;20399;-55
2023/03/10 10:33:05;;;;;;;3.15;0.80;;;;;;;;;;5025240;28;20057;-55
2023/03/10 10:35:34;;;;;;;5.05;0.80;;;;;;;;;;5038201;28;20096;-56
2023/03/10 10:38:05;;;;;;;2.58;0.80;;;;;;;;;;5039204;28;20058;-56
2023/03/10 10:40:34;;;;;;;3.42;0.90;;;;;;;;;;5039507;28;20084;-55
2023/03/10 10:43:04;;;;;;;3.42;0.85;;;;;;;;;;5039633;28;20104;-54
2023/03/10 10:45:35;;;;;;;2.08;0.70;;;;;;;;;;5038997;28;20062;-53
2023/03/10 10:48:03;;;;;;;3.00;0.80;;;;;;;;;;5039261;28;20441;-56
2023/03/10 10:50:31;;;;;;;0.88;0.50;;;;;;;;;;5039653;28;20124;-55
2023/03/10 10:53:23;;;;;;;1.02;0.60;;;;;;;;;;5039469;28;20075;-56
2023/03/10 10:56:00;;;;;;;1.75;0.63;;;;;;;;;;5039359;28;20080;-54
2023/03/10 10:58:29;;;;;;;1.17;0.40;;;;;;;;;;5038420;28;20112;-56
2023/03/10 11:00:58;;;;;;;3.17;0.90;;;;;;;;;;5038389;28;20053;-54
2023/03/10 11:03:28;;;;;;;1.15;0.60;;;;;;;;;;5038604;28;20049;-57
2023/03/10 11:05:55;;;;;;;3.17;0.47;;;;;;;;;;5038597;28;20502;-57
2023/03/10 11:08:34;;;;;;;1.10;0.63;;;;;;;;;;5038511;28;20049;-53
2023/03/10 11:11:06;;;;;;;1.30;0.50;;;;;;;;;;5035328;28;20045;-56
2023/03/10 11:13:41;;;;;;;1.50;0.65;;;;;;;;;;5034603;28;20053;-52
2023/03/10 11:16:16;;;;;;;3.65;1.17;;;;;;;;;;5034498;28;20522;-56
2023/03/10 11:18:50;;;;;;;4.53;1.88;;;;;;;;;;5034589;28;20060;-54
2023/03/10 11:21:23;;;;;;;2.90;0.88;;;;;;;;;;5034375;28;20049;-52
2023/03/10 11:23:58;;;;;;;1.35;0.50;;;;;;;;;;5034495;28;20049;-54
2023/03/10 11:26:35;;;;;;;3.92;0.60;;;;;;;;;;5034528;28;20045;-54
2023/03/10 11:29:12;;;;;;;4.22;1.20;;;;;;;;;;5034290;28;20458;-54
2023/03/10 11:31:47;;;;;;;2.40;0.63;;;;;;;;;;5034149;28;20056;-53
2023/03/10 11:34:29;;;;;;;1.15;0.50;;;;;;;;;;5034230;28;20403;-56
2023/03/10 11:37:03;;;;;;;2.00;0.80;;;;;;;;;;5034284;28;20497;-53
2023/03/10 11:39:44;;;;;;;2.33;0.70;;;;;;;;;;5034196;28;20088;-51
2023/03/10 11:42:17;;;;;;;1.77;0.60;;;;;;;;;;5033816;28;20053;-51
2023/03/10 11:44:56;;;;;;;2.15;0.60;;;;;;;;;;5034006;28;20412;-52
2023/03/10 11:47:36;;;;;;;2.55;0.90;;;;;;;;;;5033037;28;20060;-53
2023/03/10 11:50:13;;;;;;;1.48;0.50;;;;;;;;;;5033864;28;20479;-52
2023/03/10 11:52:41;;;;;;;3.15;0.73;;;;;;;;;;5033941;28;20111;-52
2023/03/10 11:55:17;;;;;;;3.35;1.33;;;;;;;;;;5033685;28;20053;-54
2023/03/10 11:57:47;;;;;;;2.83;0.60;;;;;;;;;;5033656;28;20058;-53
2023/03/10 12:00:20;;;;;;;3.27;0.60;;;;;;;;;;5033825;28;20076;-56
2023/03/10 12:03:04;;;;;;;1.48;0.50;;;;;;;;;;5033561;28;20053;-55
2023/03/10 12:05:39;;;;;;;2.70;0.70;;;;;;;;;;5033208;28;20053;-55
2023/03/10 12:08:07;;;;;;;2.03;0.60;;;;;;;;;;5013567;28;20683;-56
2023/03/10 12:10:40;;;;;;;2.63;0.60;;;;;;;;;;5013879;28;20054;-52
2023/03/10 12:13:18;;;;;;;2.70;0.50;;;;;;;;;;5013566;28;20060;-53
2023/03/10 12:15:45;;;;;;;2.80;1.35;;;;;;;;;;5013725;28;20046;-54
2023/03/10 12:18:12;;;;;;;4.07;0.60;;;;;;;;;;5013273;28;20100;-53
2023/03/10 12:20:39;;;;;;;1.58;0.40;;;;;;;;;;5013656;28;20447;-55
2023/03/10 12:23:30;;;;;;;1.02;0.52;;;;;;;;;;5013528;28;20104;-55
2023/03/10 12:25:59;;;;;;;1.02;0.40;;;;;;;;;;5013986;28;20070;-54
2023/03/10 12:28:27;;;;;;;1.25;0.47;;;;;;;;;;5013520;28;20046;-56
2023/03/10 12:30:57;;;;;;;1.65;0.60;;;;;;;;;;5013519;28;20105;-58
2023/03/10 12:33:50;;;;;;;1.02;0.52;;;;;;;;;;5013237;28;20072;-59
2023/03/10 12:36:39;;;;;;;1.40;0.63;;;;;;;;;;4999018;28;20053;-58
2023/03/10 12:39:30;;;;;;;1.40;0.55;;;;;;;;;;5013266;28;20046;-57
2023/03/10 12:42:00;;;;;;;1.58;0.40;;;;;;;;;;5012591;28;20103;-61
2023/03/10 12:44:42;;;;;;;0.40;0.30;;;;;;;;;;5013681;28;20038;-59
2023/03/10 12:47:20;;;;;;;1.42;0.35;;;;;;;;;;5012867;28;20054;-58
2023/03/10 12:49:55;;;;;;;0.75;0.45;;;;;;;;;;5012773;28;20056;-59
2023/03/10 12:52:31;;;;;;;3.83;0.63;;;;;;;;;;5013171;28;20137;-59
2023/03/10 12:55:16;;;;;;;1.52;0.50;;;;;;;;;;5013328;28;20132;-60
2023/03/10 12:57:53;;;;;;;2.33;0.43;;;;;;;;;;5012804;28;20053;-58
2023/03/10 13:00:29;;;;;;;1.83;0.60;;;;;;;;;;5012865;28;20415;-57
2023/03/10 13:03:00;;;;;;;1.23;0.50;;;;;;;;;;5012693;28;20049;-58
2023/03/10 13:05:31;;;;;;;1.65;0.40;;;;;;;;;;5012566;28;20491;-58
2023/03/10 13:08:02;;;;;;;2.10;0.40;;;;;;;;;;5032328;28;20422;-57
2023/03/10 13:10:32;;;;;;;0.98;0.40;;;;;;;;;;5032370;28;20053;-58
2023/03/10 13:13:03;;;;;;;3.67;0.80;;;;;;;;;;5032374;28;20067;-58
2023/03/10 13:15:31;;;;;;;1.58;0.45;;;;;;;;;;5032350;28;20494;-59
2023/03/10 13:18:16;;;;;;;1.33;0.40;;;;;;;;;;5032191;28;20565;-58
2023/03/10 13:20:42;;;;;;;1.85;0.50;;;;;;;;;;5032405;28;20057;-58
2023/03/10 13:23:21;;;;;;;2.90;0.68;;;;;;;;;;5031994;28;20045;-58
2023/03/10 13:25:53;;;;;;;0.63;0.40;;;;;;;;;;5032201;28;20148;-59
2023/03/10 13:28:21;;;;;;;1.75;0.50;;;;;;;;;;5032000;28;20050;-58
2023/03/10 13:30:48;;;;;;;0.80;0.40;;;;;;;;;;5031997;28;20053;-59
2023/03/10 13:33:20;;;;;;;1.80;0.70;;;;;;;;;;5032086;28;20045;-56
2023/03/10 13:35:47;;;;;;;3.60;0.73;;;;;;;;;;5031524;28;20052;-57
2023/03/10 13:38:16;;;;;;;0.90;0.40;;;;;;;;;;5031859;28;20057;-58
2023/03/10 13:40:45;;;;;;;2.00;0.43;;;;;;;;;;5032261;28;20056;-57
2023/03/10 13:43:38;;;;;;;1.42;0.32;;;;;;;;;;5031799;28;20053;-57
2023/03/10 13:46:08;;;;;;;0.82;0.38;;;;;;;;;;5028561;28;20064;-57
2023/03/10 13:48:36;;;;;;;0.95;0.60;;;;;;;;;;5032057;28;20050;-59
2023/03/10 13:51:08;;;;;;;0.60;0.35;;;;;;;;;;5031899;28;20053;-58
2023/03/10 13:53:35;;;;;;;1.40;0.40;;;;;;;;;;5034714;28;20465;-58
2023/03/10 13:56:16;;;;;;;1.75;0.82;;;;;;;;;;5035827;28;20088;-57
2023/03/10 13:58:45;;;;;;;1.70;0.50;;;;;;;;;;5036062;28;20050;-56
2023/03/10 14:01:20;;;;;;;1.42;0.50;;;;;;;;;;5029418;28;20127;-57
2023/03/10 14:03:53;;;;;;;0.73;0.38;;;;;;;;;;5034817;28;20053;-58
2023/03/10 14:06:21;;;;;;;1.42;0.40;;;;;;;;;;5028499;28;20451;-55
2023/03/10 14:08:49;;;;;;;1.25;0.40;;;;;;;;;;5016250;28;20054;-58
2023/03/10 14:11:39;;;;;;;0.32;0.25;;;;;;;;;;5016224;28;20089;-58
2023/03/10 14:14:10;;;;;;;0.95;0.30;;;;;;;;;;5035341;28;20418;-53
2023/03/10 14:16:49;;;;;;;1.80;0.40;;;;;;;;;;5027987;28;20108;-58
2023/03/10 14:19:49;;;;;;;1.00;0.45;;;;;;;;;;5019776;28;20138;-57
2023/03/10 14:22:39;;;;;;;0.98;0.40;;;;;;;;;;5016251;28;20050;-57
2023/03/10 14:25:10;;;;;;;2.63;0.60;;;;;;;;;;5029027;28;20049;-56
2023/03/10 14:27:37;;;;;;;;;;;;;;;;;;5023807;28;20082;-56
2023/03/10 14:30:17;;;;;;;0.93;0.40;;;;;;;;;;5022737;28;19920;-58
2023/03/10 14:32:44;;;;;;;0.80;0.40;;;;;;;;;;5033810;28;20058;-58
2023/03/10 14:35:13;;;;;;;0.88;0.40;;;;;;;;;;5032959;28;20625;-58
2023/03/10 14:37:40;;;;;;;0.88;0.40;;;;;;;;;;5032778;28;20107;-57
2023/03/10 14:40:10;;;;;;;0.35;0.20;;;;;;;;;;5013773;28;20049;-53
2023/03/10 14:42:39;;;;;;;;;;;;;;;;;;5021828;28;20691;-54
2023/03/10 14:45:18;;;;;;;1.00;0.40;;;;;;;;;;5026305;28;20020;-54
2023/03/10 14:47:45;;;;;;;1.23;0.30;;;;;;;;;;5022448;28;20053;-56
2023/03/10 14:50:14;;;;;;;0.70;0.30;;;;;;;;;;5033365;28;20049;-56
2023/03/10 14:52:41;;;;;;;0.40;0.40;;;;;;;;;;5023715;28;20809;-54
2023/03/10 14:55:10;;;;;;;0.40;0.30;;;;;;;;;;5025011;28;20041;-56
2023/03/10 14:57:42;;;;;;;2.58;0.30;;;;;;;;;;5026531;28;20068;-57
2023/03/10 15:00:17;;;;;;;1.17;0.45;;;;;;;;;;5026029;28;20138;-55